Time;durP1;ratioP1;P1;durP2;ratioP2;P2;SDS_P1;SDS_P2;PMS_P1;PMS_P2;Temp;Humidity;BMP_temperature;BMP_pressure;BME280_temperature;BME280_humidity;BME280_pressure;Samples;Min_cycle;Max_cycle;Signal;HPM_P1;HPM_P2
2023/10/20 00:01:41;;;;;;;27.93;11.23;;;;;;;;;;5012746;28;20030;-73
2023/10/20 00:04:06;;;;;;;27.97;11.83;;;;;;;;;;5013413;28;20025;-70
2023/10/20 00:06:32;;;;;;;33.73;14.13;;;;;;;;;;5014246;28;20525;-68
2023/10/20 00:08:58;;;;;;;23.80;11.37;;;;;;;;;;5011751;28;20017;-70
2023/10/20 00:11:25;;;;;;;33.93;13.70;;;;;;;;;;5011564;28;20117;-71
2023/10/20 00:13:51;;;;;;;34.07;15.10;;;;;;;;;;5013910;28;20087;-65
2023/10/20 00:16:23;;;;;;;23.70;9.93;;;;;;;;;;5012491;28;20026;-66
2023/10/20 00:18:48;;;;;;;41.65;15.85;;;;;;;;;;5010377;28;20496;-67
2023/10/20 00:21:13;;;;;;;41.03;16.70;;;;;;;;;;5007743;28;20035;-68
2023/10/20 00:23:38;;;;;;;22.43;10.37;;;;;;;;;;5012546;28;20026;-67
2023/10/20 00:26:04;;;;;;;33.40;13.43;;;;;;;;;;5013753;28;20044;-66
2023/10/20 00:28:29;;;;;;;40.07;14.87;;;;;;;;;;5018562;28;20018;-66
2023/10/20 00:30:54;;;;;;;32.70;14.57;;;;;;;;;;5013024;28;20033;-65
2023/10/20 00:33:20;;;;;;;38.67;15.53;;;;;;;;;;5010007;28;20017;-67
2023/10/20 00:35:45;;;;;;;30.03;12.70;;;;;;;;;;5011131;28;20026;-67
2023/10/20 00:38:11;;;;;;;37.50;15.03;;;;;;;;;;5011083;28;20029;-67
2023/10/20 00:40:44;;;;;;;33.90;14.23;;;;;;;;;;5020484;28;20360;-67
2023/10/20 00:43:09;;;;;;;42.43;16.80;;;;;;;;;;5015854;28;20478;-70
2023/10/20 00:45:34;;;;;;;37.07;14.70;;;;;;;;;;5018789;28;20014;-66
2023/10/20 00:48:00;;;;;;;33.40;14.00;;;;;;;;;;5011254;28;20112;-65
2023/10/20 00:50:25;;;;;;;37.87;15.53;;;;;;;;;;5012411;28;20022;-68
2023/10/20 00:52:50;;;;;;;26.30;11.27;;;;;;;;;;5016577;28;20025;-69
2023/10/20 00:55:16;;;;;;;36.93;16.20;;;;;;;;;;5012792;28;20535;-67
2023/10/20 00:57:43;;;;;;;38.63;15.70;;;;;;;;;;5012119;28;20030;-68
2023/10/20 01:03:11;;;;;;;33.97;14.20;;;;;;;;;;5009332;28;20017;-65
2023/10/20 01:05:36;;;;;;;28.93;11.63;;;;;;;;;;5010458;28;20022;-67
2023/10/20 01:08:02;;;;;;;22.87;10.43;;;;;;;;;;5011950;28;20021;-67
2023/10/20 01:10:28;;;;;;;22.73;9.67;;;;;;;;;;5013407;28;20028;-67
2023/10/20 01:12:53;;;;;;;40.60;16.23;;;;;;;;;;5011033;28;20433;-64
2023/10/20 01:15:18;;;;;;;33.10;12.80;;;;;;;;;;5014391;28;20026;-65
2023/10/20 01:17:44;;;;;;;34.93;14.73;;;;;;;;;;5012860;28;20042;-70
2023/10/20 01:20:09;;;;;;;30.97;13.37;;;;;;;;;;5011979;28;20110;-72
2023/10/20 01:22:38;;;;;;;24.23;11.47;;;;;;;;;;5010777;28;20049;-71
2023/10/20 01:25:03;;;;;;;38.00;15.47;;;;;;;;;;5010641;28;20429;-72
2023/10/20 01:27:28;;;;;;;19.03;8.80;;;;;;;;;;5013113;28;20049;-66
2023/10/20 01:29:53;;;;;;;28.70;12.13;;;;;;;;;;5011714;28;20384;-66
2023/10/20 01:32:19;;;;;;;30.80;12.83;;;;;;;;;;5011898;28;20025;-64
2023/10/20 01:34:44;;;;;;;22.87;10.63;;;;;;;;;;5010232;28;20022;-63
2023/10/20 01:37:11;;;;;;;31.13;14.10;;;;;;;;;;5009806;28;20078;-69
2023/10/20 01:39:37;;;;;;;42.93;16.77;;;;;;;;;;5010480;28;20018;-71
2023/10/20 01:42:02;;;;;;;34.73;14.97;;;;;;;;;;5010207;28;20037;-71
2023/10/20 01:44:27;;;;;;;29.60;12.93;;;;;;;;;;5011598;28;20479;-69
2023/10/20 01:46:53;;;;;;;25.43;11.57;;;;;;;;;;5012226;28;20378;-71
2023/10/20 01:49:18;;;;;;;37.90;15.67;;;;;;;;;;5010011;28;20491;-70
2023/10/20 01:51:43;;;;;;;39.20;15.00;;;;;;;;;;5009915;28;20434;-71
2023/10/20 01:54:08;;;;;;;31.67;12.20;;;;;;;;;;5009894;28;20114;-70
2023/10/20 01:56:34;;;;;;;25.87;11.83;;;;;;;;;;5009137;28;20112;-71
2023/10/20 01:58:59;;;;;;;39.70;15.00;;;;;;;;;;5010380;28;20049;-71
2023/10/20 02:01:25;;;;;;;36.13;13.03;;;;;;;;;;5008999;28;20018;-69
2023/10/20 02:03:51;;;;;;;31.70;13.13;;;;;;;;;;5011551;28;20097;-67
2023/10/20 02:06:16;;;;;;;23.20;10.07;;;;;;;;;;5011553;28;20018;-68
2023/10/20 02:08:42;;;;;;;29.83;11.97;;;;;;;;;;5010852;28;20022;-69
2023/10/20 02:11:08;;;;;;;25.40;10.47;;;;;;;;;;5011179;28;20090;-69
2023/10/20 02:13:35;;;;;;;39.20;16.33;;;;;;;;;;5011026;28;20039;-71
2023/10/20 02:16:00;;;;;;;36.57;14.23;;;;;;;;;;5011704;28;20024;-70
2023/10/20 02:18:25;;;;;;;37.87;15.73;;;;;;;;;;5002264;28;20054;-72
2023/10/20 02:20:57;;;;;;;29.57;10.73;;;;;;;;;;5010016;28;20488;-71
2023/10/20 02:23:23;;;;;;;29.33;10.80;;;;;;;;;;5008183;28;20395;-70
2023/10/20 02:25:58;;;;;;;36.90;15.03;;;;;;;;;;5011217;28;20018;-71
2023/10/20 02:28:23;;;;;;;45.70;17.67;;;;;;;;;;5010623;28;20026;-70
2023/10/20 02:30:49;;;;;;;31.83;12.63;;;;;;;;;;5009585;28;20037;-71
2023/10/20 02:33:14;;;;;;;35.27;14.07;;;;;;;;;;5009517;28;20032;-71
2023/10/20 02:35:40;;;;;;;32.97;12.50;;;;;;;;;;5009856;28;20025;-70
2023/10/20 02:38:05;;;;;;;38.60;15.87;;;;;;;;;;5009473;28;20434;-71
2023/10/20 02:40:30;;;;;;;30.73;13.40;;;;;;;;;;5009729;28;20393;-71
2023/10/20 02:42:55;;;;;;;39.20;17.40;;;;;;;;;;5012177;28;20410;-70
2023/10/20 02:45:21;;;;;;;39.90;16.70;;;;;;;;;;5009852;28;20014;-71
2023/10/20 02:47:46;;;;;;;21.40;8.47;;;;;;;;;;5009344;28;20030;-69
2023/10/20 02:50:11;;;;;;;23.73;10.67;;;;;;;;;;5009751;28;20109;-69
2023/10/20 02:52:36;;;;;;;23.10;10.43;;;;;;;;;;5011175;28;20049;-70
2023/10/20 02:55:02;;;;;;;21.67;9.03;;;;;;;;;;5009162;28;20030;-67
2023/10/20 02:57:27;;;;;;;35.90;15.47;;;;;;;;;;5009339;28;20026;-71
2023/10/20 02:59:52;;;;;;;33.43;14.47;;;;;;;;;;5009008;28;20026;-70
2023/10/20 03:02:18;;;;;;;23.70;10.77;;;;;;;;;;5009247;28;20026;-65
2023/10/20 03:04:43;;;;;;;35.77;13.57;;;;;;;;;;5011372;28;20097;-67
2023/10/20 03:07:09;;;;;;;24.93;11.07;;;;;;;;;;5009734;28;20033;-71
2023/10/20 03:09:35;;;;;;;34.73;15.60;;;;;;;;;;5012850;28;20025;-71
2023/10/20 03:12:01;;;;;;;18.83;8.87;;;;;;;;;;5013338;28;20033;-71
2023/10/20 03:14:26;;;;;;;23.43;9.97;;;;;;;;;;5010678;28;20464;-68
2023/10/20 03:16:51;;;;;;;27.13;11.57;;;;;;;;;;5011952;28;20022;-71
2023/10/20 03:19:16;;;;;;;19.40;8.70;;;;;;;;;;5012201;28;20056;-71
2023/10/20 03:21:42;;;;;;;20.13;9.40;;;;;;;;;;5012432;28;20040;-70
2023/10/20 03:24:09;;;;;;;19.90;9.40;;;;;;;;;;5012461;28;20034;-71
2023/10/20 03:26:34;;;;;;;24.90;8.60;;;;;;;;;;5013575;28;20032;-67
2023/10/20 03:28:59;;;;;;;21.40;9.87;;;;;;;;;;5013014;28;20472;-72
2023/10/20 03:31:24;;;;;;;24.70;9.70;;;;;;;;;;5017432;28;20034;-71
2023/10/20 03:33:50;;;;;;;23.17;10.40;;;;;;;;;;5016135;28;20078;-68
2023/10/20 03:36:16;;;;;;;28.93;11.40;;;;;;;;;;5011974;28;20018;-70
2023/10/20 03:38:42;;;;;;;20.13;10.17;;;;;;;;;;5012520;28;20026;-70
2023/10/20 03:41:09;;;;;;;17.10;6.80;;;;;;;;;;5013773;28;20477;-67
2023/10/20 03:43:35;;;;;;;17.30;8.43;;;;;;;;;;5011903;28;20380;-71
2023/10/20 03:46:00;;;;;;;21.03;10.33;;;;;;;;;;5013415;28;20496;-70
2023/10/20 03:48:29;;;;;;;14.83;7.17;;;;;;;;;;5014335;28;20113;-67
2023/10/20 03:50:54;;;;;;;23.90;11.17;;;;;;;;;;5011954;28;20030;-70
2023/10/20 03:53:26;;;;;;;23.53;11.73;;;;;;;;;;5012772;28;20163;-70
2023/10/20 03:55:59;;;;;;;12.80;6.87;;;;;;;;;;5012065;28;20483;-71
2023/10/20 03:58:25;;;;;;;25.73;12.23;;;;;;;;;;5013793;28;20553;-69
2023/10/20 04:00:54;;;;;;;14.47;7.07;;;;;;;;;;5014551;28;20052;-64
2023/10/20 04:03:19;;;;;;;20.47;9.03;;;;;;;;;;5011590;28;20384;-71
2023/10/20 04:05:45;;;;;;;20.33;8.63;;;;;;;;;;5011697;28;20025;-72
2023/10/20 04:08:10;;;;;;;14.53;6.13;;;;;;;;;;5011411;28;20028;-67
2023/10/20 04:10:35;;;;;;;14.87;8.13;;;;;;;;;;5012436;28;20059;-71
2023/10/20 04:13:02;;;;;;;11.60;6.27;;;;;;;;;;5012316;28;20069;-67
2023/10/20 04:15:29;;;;;;;12.20;5.67;;;;;;;;;;5014109;28;20418;-67
2023/10/20 04:17:56;;;;;;;19.60;8.80;;;;;;;;;;5014070;28;20491;-69
2023/10/20 04:20:23;;;;;;;17.30;8.80;;;;;;;;;;5010836;28;20050;-71
2023/10/20 04:22:49;;;;;;;13.47;6.40;;;;;;;;;;5009855;28;20449;-66
2023/10/20 04:25:21;;;;;;;11.30;6.87;;;;;;;;;;5011301;28;20057;-67
2023/10/20 04:54:58;;;;;;;11.10;5.63;;;;;;;;;;5011718;28;20037;-65
2023/10/20 05:00:07;;;;;;;13.57;6.40;;;;;;;;;;5010940;28;20051;-70
2023/10/20 05:02:39;;;;;;;8.23;4.67;;;;;;;;;;5012766;28;20033;-69
2023/10/20 05:05:11;;;;;;;11.60;6.23;;;;;;;;;;5033653;28;20372;-69
2023/10/20 05:07:36;;;;;;;10.60;5.32;;;;;;;;;;5020875;28;20026;-69
2023/10/20 05:10:01;;;;;;;9.20;4.20;;;;;;;;;;5022538;28;20506;-66
2023/10/20 05:12:28;;;;;;;14.23;7.60;;;;;;;;;;5010662;28;20026;-70
2023/10/20 05:14:54;;;;;;;9.90;5.27;;;;;;;;;;5039042;28;20079;-68
2023/10/20 05:17:20;;;;;;;15.83;7.20;;;;;;;;;;5010549;28;20496;-71
2023/10/20 05:19:48;;;;;;;10.13;5.80;;;;;;;;;;5010881;28;20061;-69
2023/10/20 05:22:14;;;;;;;10.83;5.03;;;;;;;;;;5010482;28;20018;-70
2023/10/20 05:24:39;;;;;;;13.23;7.43;;;;;;;;;;5009577;28;20030;-69
2023/10/20 05:27:04;;;;;;;14.20;6.30;;;;;;;;;;5009162;28;20118;-68
2023/10/20 05:29:30;;;;;;;8.10;4.47;;;;;;;;;;5010335;28;20075;-71
2023/10/20 05:31:55;;;;;;;9.73;5.13;;;;;;;;;;5009817;28;20383;-70
2023/10/20 05:34:20;;;;;;;9.60;4.97;;;;;;;;;;5010652;28;20026;-70
2023/10/20 05:36:45;;;;;;;9.03;3.90;;;;;;;;;;5009868;28;20384;-70
2023/10/20 05:39:13;;;;;;;9.37;5.00;;;;;;;;;;5009714;28;20447;-70
2023/10/20 05:41:39;;;;;;;13.23;6.93;;;;;;;;;;5009712;28;20467;-70
2023/10/20 05:44:06;;;;;;;12.00;4.83;;;;;;;;;;5009517;28;20021;-67
2023/10/20 05:46:31;;;;;;;14.00;7.03;;;;;;;;;;5009389;28;20093;-72
2023/10/20 05:48:56;;;;;;;9.67;5.47;;;;;;;;;;5010371;28;20136;-70
2023/10/20 05:51:22;;;;;;;11.30;5.47;;;;;;;;;;5010459;28;20262;-70
2023/10/20 05:53:47;;;;;;;15.27;5.03;;;;;;;;;;5010041;28;20014;-70
2023/10/20 05:56:12;;;;;;;12.40;6.57;;;;;;;;;;5010026;28;20022;-73
2023/10/20 05:58:38;;;;;;;8.57;5.00;;;;;;;;;;5010203;28;20021;-68
2023/10/20 06:01:06;;;;;;;8.83;4.87;;;;;;;;;;5010266;28;20018;-68
2023/10/20 06:03:32;;;;;;;8.90;5.17;;;;;;;;;;5010245;28;20041;-70
2023/10/20 06:05:58;;;;;;;13.80;7.27;;;;;;;;;;5010478;28;20388;-72
2023/10/20 06:08:24;;;;;;;14.87;6.33;;;;;;;;;;5009743;28;20017;-67
2023/10/20 06:10:50;;;;;;;15.13;7.00;;;;;;;;;;5010273;28;20425;-70
2023/10/20 06:13:15;;;;;;;17.90;8.80;;;;;;;;;;5007017;28;20502;-71
2023/10/20 06:15:41;;;;;;;13.80;5.57;;;;;;;;;;5010123;28;20068;-69
2023/10/20 06:18:09;;;;;;;16.43;8.23;;;;;;;;;;5008762;28;20042;-76
2023/10/20 06:20:38;;;;;;;25.70;9.77;;;;;;;;;;5010036;28;20025;-71
2023/10/20 06:23:03;;;;;;;13.00;7.33;;;;;;;;;;5010108;28;20480;-65
2023/10/20 06:25:30;;;;;;;17.77;6.17;;;;;;;;;;5010050;28;20033;-66
2023/10/20 06:27:55;;;;;;;15.67;7.17;;;;;;;;;;5009550;28;20022;-66
2023/10/20 06:30:24;;;;;;;8.60;4.80;;;;;;;;;;5009979;28;20391;-62
2023/10/20 06:33:32;;;;;;;11.27;5.70;;;;;;;;;;5009734;28;20044;-68
2023/10/20 06:35:49;;;;;;;9.27;4.57;;;;;;;;;;5012132;28;20034;-66
2023/10/20 06:38:17;;;;;;;8.30;4.67;;;;;;;;;;5009414;28;20095;-69
2023/10/20 06:40:42;;;;;;;11.03;5.80;;;;;;;;;;5009598;28;20190;-68
2023/10/20 06:43:08;;;;;;;13.87;6.70;;;;;;;;;;5012299;28;20014;-69
2023/10/20 06:45:34;;;;;;;13.27;4.90;;;;;;;;;;5013082;28;20078;-66
2023/10/20 06:47:59;;;;;;;10.83;5.47;;;;;;;;;;5012915;28;20093;-69
2023/10/20 06:50:24;;;;;;;10.57;4.80;;;;;;;;;;5013073;28;20093;-61
2023/10/20 06:52:49;;;;;;;14.60;7.27;;;;;;;;;;5012910;28;20026;-67
2023/10/20 06:55:15;;;;;;;7.57;3.60;;;;;;;;;;5013346;28;20018;-70
2023/10/20 06:57:41;;;;;;;8.97;4.33;;;;;;;;;;5013173;28;20459;-62
2023/10/20 07:00:16;;;;;;;9.07;4.07;;;;;;;;;;5012588;28;20024;-66
2023/10/20 07:02:42;;;;;;;7.97;4.43;;;;;;;;;;5013299;28;20547;-66
2023/10/20 07:05:07;;;;;;;8.67;3.43;;;;;;;;;;5012584;28;20093;-71
2023/10/20 07:07:32;;;;;;;12.10;3.73;;;;;;;;;;5013094;28;20541;-67
2023/10/20 07:09:57;;;;;;;8.57;3.90;;;;;;;;;;5012829;28;20014;-73
2023/10/20 07:12:23;;;;;;;2.43;1.43;;;;;;;;;;5012600;28;20025;-64
2023/10/20 07:14:48;;;;;;;0.40;0.40;;;;;;;;;;5012947;28;20030;-67
2023/10/20 07:17:13;;;;;;;37.27;1.50;;;;;;;;;;5012696;28;20877;-67
2023/10/20 07:19:38;;;;;;;0.40;0.40;;;;;;;;;;5012524;28;20025;-66
2023/10/20 07:22:04;;;;;;;3.00;1.00;;;;;;;;;;5012501;28;20021;-67
2023/10/20 07:24:29;;;;;;;0.20;0.20;;;;;;;;;;5011346;28;20025;-59
2023/10/20 07:26:55;;;;;;;0.40;0.40;;;;;;;;;;5012184;28;20108;-67
2023/10/20 07:29:20;;;;;;;0.80;0.60;;;;;;;;;;5012869;28;20026;-71
2023/10/20 07:31:47;;;;;;;0.30;0.30;;;;;;;;;;5012348;28;20072;-72
2023/10/20 07:34:12;;;;;;;0.40;0.40;;;;;;;;;;5012589;28;20675;-71
2023/10/20 07:36:37;;;;;;;2.53;0.90;;;;;;;;;;5012103;28;20026;-66
2023/10/20 07:39:03;;;;;;;0.27;0.27;;;;;;;;;;5012067;28;20021;-71
2023/10/20 07:41:29;;;;;;;0.43;0.43;;;;;;;;;;5012532;28;20021;-72
2023/10/20 07:43:54;;;;;;;0.50;0.50;;;;;;;;;;5012375;28;20460;-70
2023/10/20 07:46:21;;;;;;;0.20;0.20;;;;;;;;;;5012502;28;20452;-68
2023/10/20 07:48:46;;;;;;;0.20;0.20;;;;;;;;;;5012325;28;20391;-71
2023/10/20 07:51:12;;;;;;;0.40;0.40;;;;;;;;;;5011694;28;20160;-68
2023/10/20 07:53:37;;;;;;;0.20;0.20;;;;;;;;;;5011172;28;20025;-69
2023/10/20 07:56:03;;;;;;;0.10;0.10;;;;;;;;;;5011873;28;20022;-70
2023/10/20 07:58:28;;;;;;;0.17;0.17;;;;;;;;;;5011874;28;20040;-70
2023/10/20 08:00:53;;;;;;;0.50;0.50;;;;;;;;;;5012490;28;20049;-71
2023/10/20 08:03:19;;;;;;;0.63;0.30;;;;;;;;;;5011873;28;20014;-70
2023/10/20 08:05:44;;;;;;;0.20;0.20;;;;;;;;;;5012012;28;20517;-65
2023/10/20 08:08:09;;;;;;;0.20;0.20;;;;;;;;;;5011548;28;20468;-66
2023/10/20 08:10:36;;;;;;;0.33;0.33;;;;;;;;;;5011746;28;20100;-71
2023/10/20 08:13:02;;;;;;;0.60;0.60;;;;;;;;;;5011978;28;20029;-70
2023/10/20 08:15:28;;;;;;;0.50;0.50;;;;;;;;;;5008889;28;20434;-68
2023/10/20 08:17:53;;;;;;;0.20;0.20;;;;;;;;;;5011451;28;20054;-72
2023/10/20 08:20:19;;;;;;;0.47;0.47;;;;;;;;;;5012071;28;20047;-67
2023/10/20 08:22:44;;;;;;;0.23;0.23;;;;;;;;;;5011773;28;20022;-71
2023/10/20 08:25:09;;;;;;;0.20;0.20;;;;;;;;;;5011629;28;20022;-72
2023/10/20 08:27:35;;;;;;;0.23;0.23;;;;;;;;;;5011765;28;20022;-72
2023/10/20 08:30:00;;;;;;;0.20;0.20;;;;;;;;;;5011685;28;20034;-68
2023/10/20 08:32:25;;;;;;;0.10;0.10;;;;;;;;;;5011691;28;20018;-66
2023/10/20 08:34:51;;;;;;;0.20;0.20;;;;;;;;;;5011781;28;20033;-70
2023/10/20 08:37:17;;;;;;;0.33;0.30;;;;;;;;;;5011646;28;20028;-65
2023/10/20 08:39:43;;;;;;;0.40;0.40;;;;;;;;;;5011519;28;20018;-66
2023/10/20 08:42:18;;;;;;;0.23;0.23;;;;;;;;;;5011169;28;20021;-72
2023/10/20 08:44:44;;;;;;;0.20;0.20;;;;;;;;;;5011368;28;20067;-73
2023/10/20 08:47:12;;;;;;;0.17;0.17;;;;;;;;;;5011411;28;20468;-73
2023/10/20 08:49:38;;;;;;;0.10;0.10;;;;;;;;;;5011220;28;20464;-64
2023/10/20 08:52:04;;;;;;;0.30;0.30;;;;;;;;;;5011276;28;20528;-71
2023/10/20 08:54:30;;;;;;;0.20;0.20;;;;;;;;;;5011422;28;20022;-67
2023/10/20 08:56:55;;;;;;;0.10;0.10;;;;;;;;;;5011302;28;20040;-67
2023/10/20 08:59:20;;;;;;;0.20;0.20;;;;;;;;;;5011251;28;20021;-66
2023/10/20 09:01:47;;;;;;;0.20;0.20;;;;;;;;;;5011050;28;20025;-66
2023/10/20 09:04:24;;;;;;;0.10;0.10;;;;;;;;;;5011485;28;20460;-71
2023/10/20 09:06:50;;;;;;;0.10;0.10;;;;;;;;;;5010951;28;20101;-67
2023/10/20 09:09:16;;;;;;;0.20;0.20;;;;;;;;;;5011380;28;20066;-68
2023/10/20 09:11:41;;;;;;;0.30;0.30;;;;;;;;;;5010956;28;20545;-62
2023/10/20 09:14:06;;;;;;;0.20;0.20;;;;;;;;;;5011175;28;20028;-71
2023/10/20 09:16:33;;;;;;;0.20;0.20;;;;;;;;;;5007381;28;20075;-66
2023/10/20 09:18:58;;;;;;;0.17;0.17;;;;;;;;;;5010633;28;20519;-66
2023/10/20 09:21:25;;;;;;;0.30;0.30;;;;;;;;;;5010703;28;20046;-71
2023/10/20 09:24:07;;;;;;;0.27;0.27;;;;;;;;;;5007565;28;20472;-68
2023/10/20 09:26:34;;;;;;;0.10;0.10;;;;;;;;;;5010904;28;20355;-67
2023/10/20 09:29:00;;;;;;;0.17;0.17;;;;;;;;;;5011106;28;20018;-65
2023/10/20 09:31:26;;;;;;;0.47;0.47;;;;;;;;;;5010862;28;20470;-72
2023/10/20 09:33:52;;;;;;;0.20;0.20;;;;;;;;;;5010614;28;20069;-69
2023/10/20 09:36:18;;;;;;;0.17;0.17;;;;;;;;;;5010889;28;20021;-63
2023/10/20 09:38:53;;;;;;;0.47;0.47;;;;;;;;;;5010345;28;20464;-66
2023/10/20 09:41:28;;;;;;;0.30;0.30;;;;;;;;;;5010814;28;20057;-69
2023/10/20 09:44:06;;;;;;;0.10;0.10;;;;;;;;;;5010682;28;20536;-66
2023/10/20 09:46:44;;;;;;;0.10;0.10;;;;;;;;;;5007910;28;20034;-65
2023/10/20 09:49:11;;;;;;;0.20;0.20;;;;;;;;;;5010416;28;20021;-68
2023/10/20 09:51:37;;;;;;;0.30;0.30;;;;;;;;;;5010029;28;20050;-64
2023/10/20 09:54:02;;;;;;;0.20;0.20;;;;;;;;;;5008947;28;20053;-59
2023/10/20 09:56:28;;;;;;;0.20;0.20;;;;;;;;;;5010230;28;20014;-67
2023/10/20 09:58:58;;;;;;;0.20;0.20;;;;;;;;;;5008757;28;20034;-68
2023/10/20 10:01:23;;;;;;;0.27;0.27;;;;;;;;;;5010296;28;20491;-69
2023/10/20 10:04:00;;;;;;;0.10;0.10;;;;;;;;;;5010415;28;20026;-61
2023/10/20 10:06:25;;;;;;;0.10;0.10;;;;;;;;;;5010350;28;20457;-66
2023/10/20 10:08:52;;;;;;;0.20;0.20;;;;;;;;;;5010402;28;20022;-71
2023/10/20 10:11:28;;;;;;;0.20;0.20;;;;;;;;;;5009951;28;20074;-65
2023/10/20 10:13:54;;;;;;;0.20;0.20;;;;;;;;;;5010320;28;20528;-64
2023/10/20 10:16:20;;;;;;;0.40;0.40;;;;;;;;;;5005840;28;20105;-63
2023/10/20 10:18:45;;;;;;;0.23;0.23;;;;;;;;;;5009489;28;20125;-69
2023/10/20 10:21:21;;;;;;;0.20;0.20;;;;;;;;;;5010172;28;20543;-61
2023/10/20 10:24:05;;;;;;;0.20;0.20;;;;;;;;;;5006151;28;20006;-67
2023/10/20 10:26:30;;;;;;;0.20;0.20;;;;;;;;;;5009700;28;20018;-67
2023/10/20 10:28:55;;;;;;;0.40;0.40;;;;;;;;;;5009818;28;20006;-69
2023/10/20 10:31:31;;;;;;;0.20;0.20;;;;;;;;;;5009959;28;20097;-68
2023/10/20 10:34:01;;;;;;;0.20;0.20;;;;;;;;;;5009912;28;20014;-66
2023/10/20 10:36:26;;;;;;;0.43;0.43;;;;;;;;;;5009859;28;20030;-61
2023/10/20 10:38:51;;;;;;;0.83;0.80;;;;;;;;;;5009809;28;20022;-65
2023/10/20 10:41:22;;;;;;;0.27;0.27;;;;;;;;;;5009907;28;20010;-67
2023/10/20 10:43:51;;;;;;;0.20;0.20;;;;;;;;;;5009863;28;20468;-63
2023/10/20 10:46:17;;;;;;;0.13;0.13;;;;;;;;;;5009505;28;20060;-60
2023/10/20 10:48:45;;;;;;;0.20;0.20;;;;;;;;;;5009707;28;20392;-67
2023/10/20 10:51:10;;;;;;;0.20;0.20;;;;;;;;;;5009936;28;20526;-64
2023/10/20 10:53:35;;;;;;;0.20;0.20;;;;;;;;;;5009404;28;20022;-63
2023/10/20 10:56:01;;;;;;;0.20;0.20;;;;;;;;;;5009715;28;20010;-64
2023/10/20 10:58:27;;;;;;;0.20;0.20;;;;;;;;;;5009759;28;20022;-65
2023/10/20 11:00:54;;;;;;;0.50;0.50;;;;;;;;;;5009390;28;20500;-62
2023/10/20 11:03:19;;;;;;;0.10;0.10;;;;;;;;;;5009581;28;20014;-66
2023/10/20 11:05:45;;;;;;;0.20;0.20;;;;;;;;;;5008992;28;20029;-68
2023/10/20 11:08:10;;;;;;;0.20;0.20;;;;;;;;;;5009606;28;20013;-65
2023/10/20 11:10:37;;;;;;;0.13;0.13;;;;;;;;;;5009577;28;20021;-69
2023/10/20 11:13:07;;;;;;;0.10;0.10;;;;;;;;;;5009165;28;20029;-65
2023/10/20 11:15:32;;;;;;;0.20;0.20;;;;;;;;;;5009241;28;20113;-62
2023/10/20 11:17:59;;;;;;;0.20;0.20;;;;;;;;;;5004910;28;20539;-68
2023/10/20 11:20:24;;;;;;;0.10;0.10;;;;;;;;;;5009150;28;20013;-63
2023/10/20 11:22:53;;;;;;;0.20;0.20;;;;;;;;;;5009382;28;20482;-65
2023/10/20 11:25:19;;;;;;;0.10;0.10;;;;;;;;;;5009156;28;20015;-60
2023/10/20 11:27:53;;;;;;;0.20;0.20;;;;;;;;;;5008963;28;20026;-66
2023/10/20 11:30:21;;;;;;;0.20;0.20;;;;;;;;;;5011846;28;20014;-64
2023/10/20 11:32:47;;;;;;;0.20;0.20;;;;;;;;;;5012596;28;20051;-68
2023/10/20 11:35:13;;;;;;;0.10;0.10;;;;;;;;;;5011814;28;20099;-66
2023/10/20 11:37:38;;;;;;;0.20;0.20;;;;;;;;;;5012458;28;20486;-65
2023/10/20 11:40:04;;;;;;;0.40;0.40;;;;;;;;;;5012244;28;20018;-64
2023/10/20 11:42:29;;;;;;;0.47;0.47;;;;;;;;;;5012124;28;20014;-64
2023/10/20 11:44:55;;;;;;;0.20;0.20;;;;;;;;;;5011917;28;20025;-64
2023/10/20 11:47:21;;;;;;;0.63;0.40;;;;;;;;;;5011904;28;20022;-68
2023/10/20 11:49:47;;;;;;;0.30;0.30;;;;;;;;;;5012040;28;20048;-64
2023/10/20 11:52:12;;;;;;;0.20;0.20;;;;;;;;;;5012381;28;20022;-67
2023/10/20 11:54:38;;;;;;;1.23;0.87;;;;;;;;;;5011986;28;20514;-65
2023/10/20 11:57:03;;;;;;;0.20;0.20;;;;;;;;;;5012095;28;20026;-67
2023/10/20 11:59:28;;;;;;;0.30;0.30;;;;;;;;;;5012193;28;20027;-63
2023/10/20 12:01:53;;;;;;;0.20;0.20;;;;;;;;;;5012226;28;20071;-67
2023/10/20 12:04:19;;;;;;;0.30;0.30;;;;;;;;;;5012108;28;20089;-64
2023/10/20 12:06:44;;;;;;;1.63;0.73;;;;;;;;;;5017212;28;20475;-64
2023/10/20 12:09:10;;;;;;;0.20;0.20;;;;;;;;;;5010897;28;20425;-65
2023/10/20 12:11:36;;;;;;;0.20;0.20;;;;;;;;;;5011719;28;20014;-66
2023/10/20 12:14:02;;;;;;;0.20;0.20;;;;;;;;;;5014055;28;20041;-66
2023/10/20 12:16:27;;;;;;;0.20;0.20;;;;;;;;;;5014981;28;20018;-65
2023/10/20 12:18:52;;;;;;;0.20;0.20;;;;;;;;;;5011099;28;20049;-64
2023/10/20 12:21:18;;;;;;;0.20;0.20;;;;;;;;;;5012053;28;20097;-71
2023/10/20 12:23:43;;;;;;;0.27;0.27;;;;;;;;;;5005423;28;20037;-68
2023/10/20 12:26:08;;;;;;;0.20;0.20;;;;;;;;;;5006579;28;20067;-66
2023/10/20 12:28:34;;;;;;;0.20;0.20;;;;;;;;;;5010893;28;20067;-70
2023/10/20 12:31:02;;;;;;;0.50;0.50;;;;;;;;;;5007846;28;20430;-66
2023/10/20 12:33:27;;;;;;;0.30;0.30;;;;;;;;;;5003038;28;20022;-65
2023/10/20 12:35:55;;;;;;;0.10;0.10;;;;;;;;;;5010020;28;20044;-68
2023/10/20 12:38:21;;;;;;;1.90;0.50;;;;;;;;;;5015975;28;20360;-66
2023/10/20 12:40:48;;;;;;;0.30;0.30;;;;;;;;;;5011812;28;20030;-67
2023/10/20 12:43:13;;;;;;;0.10;0.10;;;;;;;;;;5007497;28;20052;-68
2023/10/20 12:45:39;;;;;;;0.50;0.30;;;;;;;;;;5011428;28;20399;-72
2023/10/20 12:48:05;;;;;;;0.10;0.10;;;;;;;;;;5011547;28;20025;-70
2023/10/20 12:50:32;;;;;;;0.17;0.17;;;;;;;;;;5011570;28;20018;-71
2023/10/20 12:52:58;;;;;;;0.77;0.73;;;;;;;;;;5011093;28;20018;-71
2023/10/20 12:55:24;;;;;;;0.20;0.20;;;;;;;;;;5011071;28;20021;-64
2023/10/20 12:57:49;;;;;;;0.27;0.27;;;;;;;;;;5011313;28;20022;-66
2023/10/20 13:00:15;;;;;;;0.20;0.20;;;;;;;;;;5011659;28;20560;-62
2023/10/20 13:02:43;;;;;;;0.20;0.20;;;;;;;;;;5011240;28;20383;-69
2023/10/20 13:05:09;;;;;;;0.20;0.20;;;;;;;;;;5009586;28;20387;-65
2023/10/20 13:07:35;;;;;;;0.30;0.30;;;;;;;;;;5011009;28;20097;-65
2023/10/20 13:10:03;;;;;;;0.10;0.10;;;;;;;;;;5011268;28;20104;-63
2023/10/20 13:12:29;;;;;;;0.20;0.20;;;;;;;;;;5010781;28;20091;-64
2023/10/20 13:14:55;;;;;;;0.10;0.10;;;;;;;;;;5010454;28;20018;-65
2023/10/20 13:17:21;;;;;;;0.20;0.20;;;;;;;;;;5010525;28;20095;-66
2023/10/20 13:19:46;;;;;;;0.17;0.17;;;;;;;;;;5010541;28;20476;-67
2023/10/20 13:22:12;;;;;;;0.20;0.20;;;;;;;;;;5011277;28;20025;-73
2023/10/20 13:24:37;;;;;;;0.40;0.40;;;;;;;;;;5011057;28;20097;-69
2023/10/20 13:27:02;;;;;;;0.20;0.20;;;;;;;;;;5010577;28;20026;-63
2023/10/20 13:29:28;;;;;;;0.20;0.20;;;;;;;;;;5010768;28;20067;-66
2023/10/20 13:31:53;;;;;;;0.20;0.20;;;;;;;;;;5010929;28;20029;-67
2023/10/20 13:34:18;;;;;;;0.20;0.20;;;;;;;;;;5010749;28;20051;-59
2023/10/20 13:36:43;;;;;;;0.20;0.20;;;;;;;;;;5010486;28;20078;-64
2023/10/20 13:39:09;;;;;;;0.20;0.20;;;;;;;;;;5010310;28;20112;-67
2023/10/20 13:41:34;;;;;;;0.20;0.20;;;;;;;;;;5010761;28;20029;-67
2023/10/20 13:43:59;;;;;;;0.20;0.20;;;;;;;;;;5010418;28;20101;-66
2023/10/20 13:46:25;;;;;;;0.10;0.10;;;;;;;;;;5010378;28;20045;-66
2023/10/20 13:48:50;;;;;;;0.13;0.13;;;;;;;;;;5006255;28;20022;-65
2023/10/20 13:51:15;;;;;;;0.30;0.30;;;;;;;;;;5009600;28;20022;-70
2023/10/20 13:53:41;;;;;;;0.10;0.10;;;;;;;;;;5010483;28;20014;-66
2023/10/20 13:56:06;;;;;;;0.20;0.20;;;;;;;;;;5010346;28;20052;-69
2023/10/20 13:58:31;;;;;;;0.20;0.20;;;;;;;;;;5009974;28;20202;-64
2023/10/20 14:00:57;;;;;;;0.20;0.20;;;;;;;;;;5010387;28;20094;-64
2023/10/20 14:03:22;;;;;;;0.20;0.17;;;;;;;;;;5010572;28;20138;-69
2023/10/20 14:05:54;;;;;;;0.20;0.20;;;;;;;;;;5010301;28;20017;-66
2023/10/20 14:08:19;;;;;;;0.20;0.20;;;;;;;;;;5009985;28;20021;-65
2023/10/20 14:10:45;;;;;;;0.77;0.67;;;;;;;;;;5009979;28;20472;-69
2023/10/20 14:13:10;;;;;;;0.10;0.10;;;;;;;;;;5007003;28;20055;-68
2023/10/20 14:15:35;;;;;;;0.20;0.20;;;;;;;;;;5009955;28;20017;-66
2023/10/20 14:18:01;;;;;;;0.20;0.20;;;;;;;;;;5009746;28;20080;-65
2023/10/20 14:20:27;;;;;;;0.20;0.20;;;;;;;;;;5010224;28;20460;-67
2023/10/20 14:22:52;;;;;;;0.10;0.10;;;;;;;;;;5010120;28;20034;-67
2023/10/20 14:25:17;;;;;;;0.20;0.20;;;;;;;;;;5005367;28;20014;-69
2023/10/20 14:27:42;;;;;;;0.10;0.10;;;;;;;;;;5010074;28;20044;-73
2023/10/20 14:30:08;;;;;;;0.20;0.20;;;;;;;;;;5010085;28;20030;-69
2023/10/20 14:32:33;;;;;;;0.20;0.20;;;;;;;;;;5010022;28;20365;-70
2023/10/20 14:34:58;;;;;;;0.20;0.20;;;;;;;;;;5009908;28;20018;-71
2023/10/20 14:37:23;;;;;;;0.10;0.10;;;;;;;;;;5009809;28;20379;-68
2023/10/20 14:39:48;;;;;;;0.30;0.30;;;;;;;;;;5009896;28;20026;-71
2023/10/20 14:42:14;;;;;;;0.17;0.17;;;;;;;;;;5009900;28;20048;-67
2023/10/20 14:44:39;;;;;;;0.20;0.20;;;;;;;;;;5010101;28;20021;-68
2023/10/20 14:47:05;;;;;;;0.20;0.20;;;;;;;;;;5009582;28;20021;-67
2023/10/20 14:49:31;;;;;;;0.10;0.10;;;;;;;;;;5009722;28;20028;-67
2023/10/20 14:51:59;;;;;;;0.20;0.20;;;;;;;;;;5009562;28;20109;-75
2023/10/20 14:54:24;;;;;;;0.30;0.30;;;;;;;;;;5009794;28;20099;-69
2023/10/20 14:56:49;;;;;;;0.40;0.40;;;;;;;;;;5009620;28;20022;-61
2023/10/20 14:59:15;;;;;;;0.13;0.13;;;;;;;;;;5009286;28;20030;-65
2023/10/20 15:01:40;;;;;;;0.13;0.13;;;;;;;;;;5009406;28;20067;-68
2023/10/20 15:04:06;;;;;;;0.20;0.20;;;;;;;;;;5012295;28;20063;-77